createdAt,value
2023-04-05T00:01:43.326Z,6.80
2023-04-05T00:04:12.109Z,7.00
2023-04-05T00:06:44.155Z,6.70
2023-04-05T00:09:13.288Z,7.30
2023-04-05T00:11:41.971Z,7.10
2023-04-05T00:14:10.099Z,7.50
2023-04-05T00:16:38.765Z,6.90
2023-04-05T00:19:06.905Z,7.10
2023-04-05T00:21:38.224Z,6.50
2023-04-05T00:24:07.633Z,10.20
2023-04-05T00:26:36.450Z,12.80
2023-04-05T00:29:06.159Z,8.10
2023-04-05T00:31:34.271Z,6.10
2023-04-05T00:34:02.668Z,7.60
2023-04-05T00:36:31.241Z,7.50
2023-04-05T00:38:59.440Z,6.70
2023-04-05T00:41:27.678Z,5.60
2023-04-05T00:43:57.202Z,5.80
2023-04-05T00:46:36.620Z,5.80
2023-04-05T00:49:04.890Z,5.40
2023-04-05T00:51:36.754Z,4.80
2023-04-05T00:54:05.668Z,5.10
2023-04-05T00:56:33.814Z,5.00
2023-04-05T00:59:04.734Z,5.30
2023-04-05T01:01:38.075Z,5.10
2023-04-05T01:04:07.355Z,5.20
2023-04-05T01:06:58.535Z,5.10
2023-04-05T01:09:48.944Z,4.80
2023-04-05T01:12:18.038Z,5.40
2023-04-05T01:14:55.658Z,24.90
2023-04-05T01:17:28.404Z,20.30
2023-04-05T01:20:00.624Z,4.90
2023-04-05T01:22:40.656Z,5.30
2023-04-05T01:25:28.513Z,9.70
2023-04-05T01:27:59.721Z,5.80
2023-04-05T01:30:39.689Z,5.70
2023-04-05T01:33:17.459Z,6.20
2023-04-05T01:36:14.365Z,7.80
2023-04-05T01:38:42.558Z,6.20
2023-04-05T01:41:12.687Z,6.30
2023-04-05T01:43:42.873Z,5.10
2023-04-05T01:46:11.151Z,4.80
2023-04-05T01:48:39.229Z,5.50
2023-04-05T01:51:07.552Z,5.10
2023-04-05T01:53:35.653Z,5.20
2023-04-05T01:56:03.932Z,5.00
2023-04-05T01:58:32.416Z,4.70
2023-04-05T02:01:00.584Z,4.90
2023-04-05T02:03:30.552Z,4.90
2023-04-05T02:05:58.877Z,4.90
2023-04-05T02:08:26.962Z,5.30
2023-04-05T02:10:55.465Z,4.90
2023-04-05T02:13:26.362Z,5.40
2023-04-05T02:15:57.415Z,5.10
2023-04-05T02:18:30.263Z,5.20
2023-04-05T02:21:08.128Z,4.40
2023-04-05T02:23:36.830Z,4.40
2023-04-05T02:26:05.177Z,4.50
2023-04-05T02:28:36.113Z,5.00
2023-04-05T02:31:10.035Z,5.20
2023-04-05T02:33:39.148Z,4.50
2023-04-05T02:36:09.521Z,4.70
2023-04-05T02:38:38.137Z,7.20
2023-04-05T02:41:11.897Z,4.90
2023-04-05T02:43:40.008Z,5.50
2023-04-05T02:46:08.242Z,4.50
2023-04-05T02:48:40.943Z,4.20
2023-04-05T02:51:09.941Z,5.00
2023-04-05T02:53:40.549Z,4.70
2023-04-05T02:56:11.790Z,4.40
2023-04-05T02:58:41.280Z,5.00
2023-04-05T03:01:10.189Z,4.70
2023-04-05T03:03:40.915Z,5.50
2023-04-05T03:06:13.606Z,5.50
2023-04-05T03:08:49.511Z,5.50
2023-04-05T03:11:25.738Z,4.50
2023-04-05T03:13:57.559Z,5.00
2023-04-05T03:16:37.460Z,4.80
2023-04-05T03:19:13.897Z,4.50
2023-04-05T03:21:49.783Z,4.30
2023-04-05T03:24:35.904Z,4.50
2023-04-05T03:27:06.361Z,5.10
2023-04-05T03:29:43.980Z,4.50
2023-04-05T03:32:16.298Z,4.70
2023-04-05T03:34:49.735Z,5.10
2023-04-05T03:37:18.296Z,4.40
2023-04-05T03:39:51.237Z,5.30
2023-04-05T03:42:20.110Z,5.50
2023-04-05T03:44:52.273Z,5.70
2023-04-05T03:47:21.013Z,5.50
2023-04-05T03:49:49.585Z,5.60
2023-04-05T03:52:17.653Z,5.50
2023-04-05T03:54:46.576Z,5.00
2023-04-05T03:57:16.894Z,4.80
2023-04-05T03:59:47.293Z,4.60
2023-04-05T04:02:16.629Z,4.60
2023-04-05T04:04:45.608Z,4.00
2023-04-05T04:07:14.470Z,4.20
2023-04-05T04:09:42.905Z,4.30
2023-04-05T04:12:15.917Z,4.50
2023-04-05T04:14:52.344Z,4.20
2023-04-05T04:17:52.967Z,4.10
2023-04-05T04:21:06.956Z,4.80
2023-04-05T04:23:50.221Z,5.30
2023-04-05T04:26:29.410Z,5.50
2023-04-05T04:29:17.944Z,6.00
2023-04-05T04:32:27.293Z,6.50
2023-04-05T04:35:18.541Z,5.00
2023-04-05T04:38:00.251Z,5.10
2023-04-05T04:40:54.091Z,4.80
2023-04-05T04:43:58.689Z,4.80
2023-04-05T04:46:35.047Z,5.20
2023-04-05T04:49:17.283Z,4.80
2023-04-05T04:51:51.614Z,5.50
2023-04-05T04:54:22.560Z,4.30
2023-04-05T04:56:50.874Z,4.60
2023-04-05T04:59:19.330Z,5.10
2023-04-05T05:01:49.366Z,5.60
2023-04-05T05:04:17.721Z,4.50
2023-04-05T05:06:46.409Z,5.20
2023-04-05T05:09:14.524Z,4.90
2023-04-05T05:14:27.442Z,4.30
2023-04-05T05:16:59.123Z,4.20
2023-04-05T05:19:29.969Z,4.30
2023-04-05T05:21:58.869Z,4.40
2023-04-05T05:24:27.814Z,4.20
2023-04-05T05:26:56.077Z,4.70
2023-04-05T05:29:25.871Z,4.20
2023-04-05T05:31:54.252Z,4.40
2023-04-05T05:34:23.734Z,4.80
2023-04-05T05:37:01.812Z,4.00
2023-04-05T05:39:30.641Z,4.10
2023-04-05T05:41:58.933Z,4.10
2023-04-05T05:44:27.075Z,3.70
2023-04-05T05:46:58.670Z,4.00
2023-04-05T05:49:26.995Z,4.00
2023-04-05T05:51:57.523Z,4.00
2023-04-05T05:54:25.738Z,4.50
2023-04-05T05:56:54.114Z,4.70
2023-04-05T05:59:22.167Z,5.00
2023-04-05T06:01:51.392Z,5.50
2023-04-05T06:04:21.064Z,4.40
2023-04-05T06:07:28.636Z,4.50
2023-04-05T06:09:57.594Z,4.90
2023-04-05T06:12:27.570Z,4.50
2023-04-05T06:14:57.401Z,4.20
2023-04-05T06:17:26.017Z,4.00
2023-04-05T06:19:54.157Z,4.70
2023-04-05T06:22:23.718Z,4.30
2023-04-05T06:24:51.873Z,4.20
2023-04-05T06:27:20.188Z,4.10
2023-04-05T06:29:48.861Z,3.90
2023-04-05T06:32:17.062Z,4.20
2023-04-05T06:34:48.786Z,4.10
2023-04-05T06:37:16.833Z,5.10
2023-04-05T06:39:45.117Z,4.10
2023-04-05T06:42:13.385Z,4.20
2023-04-05T06:44:44.949Z,4.40
2023-04-05T06:47:13.320Z,4.70
2023-04-05T06:49:41.973Z,4.70
2023-04-05T06:52:10.092Z,4.80
2023-04-05T06:54:39.899Z,4.60
2023-04-05T06:57:08.156Z,4.50
2023-04-05T06:59:36.377Z,4.90
2023-04-05T07:02:05.060Z,4.20
2023-04-05T07:04:37.088Z,5.10
2023-04-05T07:07:06.695Z,5.20
2023-04-05T07:09:36.220Z,4.30
2023-04-05T07:12:06.212Z,4.50
2023-04-05T07:14:36.075Z,4.70
2023-04-05T07:17:06.333Z,5.10
2023-04-05T07:19:35.590Z,5.70
2023-04-05T07:22:03.834Z,5.50
2023-04-05T07:24:33.139Z,5.20
2023-04-05T07:27:04.164Z,5.40
2023-04-05T07:29:35.045Z,5.60
2023-04-05T07:32:04.616Z,6.10
2023-04-05T07:34:36.816Z,5.70
2023-04-05T07:37:05.644Z,5.30
2023-04-05T07:39:33.941Z,5.20
2023-04-05T07:42:02.115Z,5.00
2023-04-05T07:44:31.054Z,5.00
2023-04-05T07:46:59.221Z,5.10
2023-04-05T07:49:27.832Z,4.90
2023-04-05T07:51:58.865Z,4.90
2023-04-05T07:54:26.926Z,5.50
2023-04-05T07:56:57.653Z,5.00
2023-04-05T07:59:26.104Z,5.00
2023-04-05T08:01:57.233Z,4.60
2023-04-05T08:04:30.570Z,5.10
2023-04-05T08:06:58.808Z,5.20
2023-04-05T08:09:26.919Z,5.90
2023-04-05T08:11:55.089Z,5.40
2023-04-05T08:14:23.480Z,5.40
2023-04-05T08:16:52.078Z,5.50
2023-04-05T08:19:20.214Z,4.90
2023-04-05T08:21:48.569Z,5.00
2023-04-05T08:24:17.020Z,5.50
2023-04-05T08:26:45.846Z,6.00
2023-04-05T08:29:15.536Z,6.20
2023-04-05T08:31:44.380Z,6.00
2023-04-05T08:34:13.018Z,5.80
2023-04-05T08:36:43.107Z,6.00
2023-04-05T08:39:11.596Z,5.70
2023-04-05T08:41:42.080Z,6.10
2023-04-05T08:44:10.774Z,6.60
2023-04-05T08:46:39.076Z,5.90
2023-04-05T08:49:08.376Z,6.40
2023-04-05T08:51:39.256Z,6.60
2023-04-05T08:54:07.396Z,6.50
2023-04-05T08:56:36.879Z,7.10
2023-04-05T08:59:08.291Z,7.00
2023-04-05T09:01:43.315Z,6.60
2023-04-05T09:04:14.768Z,6.20
2023-04-05T09:06:44.652Z,9.20
2023-04-05T09:09:12.802Z,8.10
2023-04-05T09:11:43.515Z,6.90
2023-04-05T09:14:11.814Z,10.20
2023-04-05T09:16:44.222Z,6.80
2023-04-05T09:19:12.508Z,24.50
2023-04-05T09:22:00.879Z,6.10
2023-04-05T09:24:43.166Z,5.20
2023-04-05T09:27:16.933Z,5.40
2023-04-05T09:29:49.348Z,10.30
2023-04-05T09:32:21.612Z,7.80
2023-04-05T09:34:53.367Z,8.40
2023-04-05T09:37:28.201Z,5.90
2023-04-05T09:40:04.590Z,6.30
2023-04-05T09:42:45.051Z,5.90
2023-04-05T09:45:18.594Z,8.70
2023-04-05T09:48:03.085Z,5.30
2023-04-05T09:50:31.751Z,6.40
2023-04-05T09:53:10.982Z,6.20
2023-04-05T09:55:40.683Z,13.60
2023-04-05T09:58:14.203Z,7.20
2023-04-05T10:01:00.013Z,7.30
2023-04-05T10:03:41.356Z,6.20
2023-04-05T10:06:09.465Z,12.00
2023-04-05T10:08:38.257Z,6.90
2023-04-05T10:11:06.870Z,6.80
2023-04-05T10:13:34.974Z,6.80
2023-04-05T10:16:03.194Z,6.80
2023-04-05T10:18:39.384Z,5.80
2023-04-05T10:21:11.733Z,7.60
2023-04-05T10:23:40.145Z,7.10
2023-04-05T10:26:17.108Z,6.10
2023-04-05T10:28:47.912Z,8.20
2023-04-05T10:31:34.187Z,7.40
2023-04-05T10:34:15.052Z,6.60
2023-04-05T10:36:51.185Z,7.00
2023-04-05T10:39:30.539Z,7.80
2023-04-05T10:42:06.157Z,9.20
2023-04-05T10:44:34.690Z,6.80
2023-04-05T10:47:04.425Z,7.20
2023-04-05T10:49:36.566Z,7.80
2023-04-05T10:52:05.775Z,8.70
2023-04-05T10:54:34.965Z,9.00
2023-04-05T10:57:06.897Z,7.50
2023-04-05T10:59:41.486Z,8.80
2023-04-05T11:02:09.845Z,7.40
2023-04-05T11:04:41.676Z,9.80
2023-04-05T11:07:11.103Z,8.60
2023-04-05T11:09:50.129Z,8.10
2023-04-05T11:12:18.456Z,7.80
2023-04-05T11:14:47.263Z,7.30
2023-04-05T11:17:26.340Z,7.40
2023-04-05T11:20:05.039Z,10.30
2023-04-05T11:22:33.770Z,8.80
2023-04-05T11:25:03.458Z,9.70
2023-04-05T11:27:34.160Z,8.50
2023-04-05T11:30:02.683Z,8.80
2023-04-05T11:32:43.740Z,9.20
2023-04-05T11:35:16.201Z,9.10
2023-04-05T11:38:02.709Z,8.50
2023-04-05T11:40:35.208Z,8.00
2023-04-05T11:43:08.677Z,8.30
2023-04-05T11:45:38.581Z,8.20
2023-04-05T11:48:08.344Z,8.80
2023-04-05T11:50:37.298Z,9.70
2023-04-05T11:53:14.103Z,9.40
2023-04-05T11:55:44.152Z,9.60
2023-04-05T11:58:21.926Z,8.30
2023-04-05T12:01:07.394Z,9.40
2023-04-05T12:03:38.689Z,9.60
2023-04-05T12:06:08.334Z,8.90
2023-04-05T12:08:43.004Z,9.10
2023-04-05T12:11:16.156Z,8.60
2023-04-05T12:13:46.456Z,9.10
2023-04-05T12:16:14.620Z,9.20
2023-04-05T12:18:42.837Z,11.70
2023-04-05T12:21:11.013Z,9.30
2023-04-05T12:23:39.194Z,9.00
2023-04-05T12:26:08.291Z,9.70
2023-04-05T12:28:58.814Z,10.30
2023-04-05T12:31:44.602Z,9.60
2023-04-05T12:34:14.413Z,9.40
2023-04-05T12:39:16.034Z,9.30
2023-04-05T12:41:44.594Z,9.60
2023-04-05T12:44:15.961Z,10.20
2023-04-05T12:46:47.650Z,10.10
2023-04-05T12:51:46.344Z,9.70
2023-04-05T12:54:15.096Z,9.50
2023-04-05T12:56:43.304Z,9.20
2023-04-05T12:59:11.746Z,10.20
2023-04-05T13:01:39.918Z,10.00
2023-04-05T13:04:16.182Z,8.70
2023-04-05T13:06:50.267Z,9.00
2023-04-05T13:11:48.648Z,10.30
2023-04-05T13:14:18.022Z,10.10
2023-04-05T13:16:46.243Z,9.90
2023-04-05T13:19:14.218Z,9.30
2023-04-05T13:21:42.842Z,9.60
2023-04-05T13:24:12.865Z,10.30
2023-04-05T13:26:44.514Z,8.80
2023-04-05T13:29:13.115Z,9.80
2023-04-05T13:31:41.355Z,9.80
2023-04-05T13:34:10.482Z,10.20
2023-04-05T13:36:38.614Z,11.00
2023-04-05T13:39:06.799Z,10.30
2023-04-05T13:41:36.001Z,9.40
2023-04-05T13:44:06.454Z,9.10
2023-04-05T13:46:35.913Z,10.00
2023-04-05T13:49:04.070Z,10.00
2023-04-05T13:51:34.612Z,9.30
2023-04-05T13:54:02.873Z,9.90
2023-04-05T13:56:35.447Z,9.50
2023-04-05T13:59:04.561Z,9.80
2023-04-05T14:01:35.962Z,9.10
2023-04-05T14:04:05.109Z,10.60
2023-04-05T14:06:33.825Z,9.10
2023-04-05T14:09:02.247Z,9.40
2023-04-05T14:11:32.049Z,9.60
2023-04-05T14:14:00.451Z,9.70
2023-04-05T14:16:30.063Z,8.50
2023-04-05T14:18:58.781Z,9.20
2023-04-05T14:21:27.677Z,9.30
2023-04-05T14:23:58.051Z,9.30
2023-04-05T14:26:27.045Z,9.50
2023-04-05T14:28:55.144Z,9.90
2023-04-05T14:31:26.389Z,9.70
2023-04-05T14:33:55.980Z,10.00
2023-04-05T14:36:24.288Z,11.10
2023-04-05T14:38:56.984Z,11.70
2023-04-05T14:41:27.325Z,10.80
2023-04-05T14:43:56.049Z,12.10
2023-04-05T14:46:24.300Z,11.70
2023-04-05T14:48:52.614Z,12.70
2023-04-05T14:51:20.990Z,14.60
2023-04-05T14:53:49.511Z,11.90
2023-04-05T14:56:19.426Z,11.50
2023-04-05T14:58:48.145Z,11.60
2023-04-05T15:01:16.642Z,13.70
2023-04-05T15:03:46.384Z,11.90
2023-04-05T15:06:16.549Z,11.30
2023-04-05T15:08:53.986Z,13.00
2023-04-05T15:11:22.976Z,11.70
2023-04-05T15:13:51.839Z,12.10
2023-04-05T15:16:21.057Z,11.60
2023-04-05T15:18:51.182Z,11.60
2023-04-05T15:21:20.243Z,12.30
2023-04-05T15:23:48.867Z,12.40
2023-04-05T15:26:17.413Z,13.20
2023-04-05T15:28:45.946Z,11.70
2023-04-05T15:31:14.095Z,12.30
2023-04-05T15:33:44.540Z,14.50
2023-04-05T15:36:13.976Z,11.70
2023-04-05T15:38:43.195Z,13.00
2023-04-05T15:41:11.365Z,13.40
2023-04-05T15:43:39.622Z,15.20
2023-04-05T15:46:07.976Z,13.90
2023-04-05T15:48:37.362Z,13.60
2023-04-05T15:51:05.643Z,12.70
2023-04-05T15:53:34.043Z,12.90
2023-04-05T15:56:02.755Z,12.80
2023-04-05T15:58:31.273Z,12.70
2023-04-05T16:00:59.522Z,14.50
2023-04-05T16:03:31.944Z,14.90
2023-04-05T16:06:24.871Z,14.00
2023-04-05T16:08:53.050Z,12.50
2023-04-05T16:11:21.684Z,14.00
2023-04-05T16:13:57.405Z,13.30
2023-04-05T16:16:35.289Z,15.10
2023-04-05T16:19:08.253Z,14.20
2023-04-05T16:21:36.815Z,13.30
2023-04-05T16:24:06.508Z,13.20
2023-04-05T16:26:34.775Z,14.10
2023-04-05T16:29:03.798Z,13.70
2023-04-05T16:31:32.524Z,14.10
2023-04-05T16:34:01.070Z,16.00
2023-04-05T16:36:29.674Z,15.50
2023-04-05T16:38:57.853Z,14.60
2023-04-05T16:41:27.707Z,16.00
2023-04-05T16:43:56.085Z,15.20
2023-04-05T16:46:24.805Z,15.80
2023-04-05T16:48:53.605Z,14.20
2023-04-05T16:51:22.891Z,14.00
2023-04-05T16:53:51.035Z,15.50
2023-04-05T16:56:19.851Z,14.40
2023-04-05T16:58:48.245Z,15.60
2023-04-05T17:01:17.875Z,15.50
2023-04-05T17:03:47.328Z,15.30
2023-04-05T17:06:15.988Z,16.10
2023-04-05T17:08:44.271Z,17.70
2023-04-05T17:11:12.419Z,18.00
2023-04-05T17:13:47.131Z,17.00
2023-04-05T17:16:16.818Z,19.70
2023-04-05T17:18:45.154Z,15.70
2023-04-05T17:21:20.167Z,17.90
2023-04-05T17:23:48.755Z,16.40
2023-04-05T17:26:16.960Z,16.90
2023-04-05T17:28:45.590Z,16.10
2023-04-05T17:31:14.136Z,16.40
2023-04-05T17:33:48.837Z,18.50
2023-04-05T17:36:17.922Z,16.90
2023-04-05T17:38:46.810Z,15.90
2023-04-05T17:41:15.233Z,18.00
2023-04-05T17:43:43.823Z,19.30
2023-04-05T17:46:14.094Z,21.10
2023-04-05T17:48:58.697Z,16.50
2023-04-05T17:51:43.134Z,17.30
2023-04-05T17:54:12.554Z,16.80
2023-04-05T17:56:40.978Z,16.90
2023-04-05T17:59:09.464Z,16.70
2023-04-05T18:01:40.496Z,17.50
2023-04-05T18:07:39.372Z,19.50
2023-04-05T18:10:32.690Z,18.50
2023-04-05T18:15:33.239Z,18.60
2023-04-05T18:18:01.851Z,19.70
2023-04-05T18:20:30.251Z,20.20
2023-04-05T18:23:08.172Z,20.30
2023-04-05T18:25:36.505Z,18.90
2023-04-05T18:28:22.229Z,19.00
2023-04-05T18:30:59.717Z,17.80
2023-04-05T18:33:44.486Z,19.60
2023-04-05T18:36:21.521Z,21.40
2023-04-05T18:38:49.923Z,19.40
2023-04-05T18:41:18.189Z,19.30
2023-04-05T18:43:48.237Z,18.60
2023-04-05T18:46:18.736Z,18.50
2023-04-05T18:48:56.278Z,17.70
2023-04-05T18:51:24.705Z,17.00
2023-04-05T18:53:52.923Z,20.10
2023-04-05T18:56:21.477Z,18.20
2023-04-05T18:58:52.848Z,19.00
2023-04-05T19:01:22.364Z,21.60
2023-04-05T19:03:51.063Z,18.00
2023-04-05T19:06:19.292Z,19.80
2023-04-05T19:08:49.034Z,18.40
2023-04-05T19:11:18.916Z,17.90
2023-04-05T19:13:47.118Z,19.50
2023-04-05T19:16:17.630Z,21.50
2023-04-05T19:18:46.010Z,19.90
2023-04-05T19:21:17.773Z,22.10
2023-04-05T19:23:48.112Z,23.00
2023-04-05T19:26:16.446Z,21.30
2023-04-05T19:28:44.855Z,21.20
2023-04-05T19:31:13.188Z,18.90
2023-04-05T19:33:42.065Z,19.40
2023-04-05T19:36:10.694Z,19.00
2023-04-05T19:38:39.655Z,20.10
2023-04-05T19:41:09.577Z,21.30
2023-04-05T19:43:41.319Z,20.90
2023-04-05T19:46:10.985Z,25.80
2023-04-05T19:51:11.378Z,22.60
2023-04-05T19:53:48.511Z,20.80
2023-04-05T19:56:24.747Z,20.50
2023-04-05T19:58:59.053Z,18.40
2023-04-05T20:01:38.875Z,21.30
2023-04-05T20:04:15.403Z,20.00
2023-04-05T20:06:55.316Z,17.90
2023-04-05T20:09:29.452Z,20.60
2023-04-05T20:12:02.029Z,20.60
2023-04-05T20:14:42.142Z,23.20
2023-04-05T20:17:12.583Z,22.60
2023-04-05T20:19:41.670Z,22.80
2023-04-05T20:22:10.068Z,18.90
2023-04-05T20:24:39.748Z,19.70
2023-04-05T20:27:15.170Z,18.60
2023-04-05T20:29:44.380Z,18.40
2023-04-05T20:32:12.592Z,19.40
2023-04-05T20:34:43.862Z,21.10
2023-04-05T20:37:19.255Z,25.80
2023-04-05T20:39:47.601Z,25.40
2023-04-05T20:42:16.512Z,21.10
2023-04-05T20:44:49.219Z,19.50
2023-04-05T20:47:17.648Z,20.70
2023-04-05T20:49:47.878Z,35.60
2023-04-05T20:52:17.588Z,24.00
2023-04-05T20:54:47.356Z,27.70
2023-04-05T20:57:16.266Z,26.30
2023-04-05T20:59:44.901Z,21.60
2023-04-05T21:02:13.194Z,17.90
2023-04-05T21:04:42.652Z,19.40
2023-04-05T21:07:12.207Z,19.50
2023-04-05T21:09:41.508Z,17.20
2023-04-05T21:12:11.409Z,16.30
2023-04-05T21:14:39.624Z,18.60
2023-04-05T21:17:07.715Z,19.50
2023-04-05T21:19:36.278Z,19.90
2023-04-05T21:22:04.478Z,20.70
2023-04-05T21:24:32.602Z,17.30
2023-04-05T21:27:01.481Z,18.10
2023-04-05T21:29:35.145Z,17.40
2023-04-05T21:32:03.838Z,18.50
2023-04-05T21:34:32.258Z,20.90
2023-04-05T21:37:03.969Z,20.60
2023-04-05T21:39:33.153Z,19.90
2023-04-05T21:42:01.396Z,17.80
2023-04-05T21:44:30.193Z,16.60
2023-04-05T21:46:59.575Z,17.60
2023-04-05T21:49:38.181Z,17.90
2023-04-05T21:52:06.401Z,18.40
2023-04-05T21:54:34.664Z,20.10
2023-04-05T21:57:05.034Z,19.50
2023-04-05T21:59:33.700Z,18.10
2023-04-05T22:02:06.834Z,30.60
2023-04-05T22:04:36.520Z,22.10
2023-04-05T22:07:05.773Z,18.30
2023-04-05T22:09:34.172Z,18.00
2023-04-05T22:12:03.345Z,24.90
2023-04-05T22:14:31.642Z,15.80
2023-04-05T22:16:59.912Z,16.40
2023-04-05T22:19:32.715Z,17.60
2023-04-05T22:22:01.817Z,17.40
2023-04-05T22:24:30.552Z,17.20
2023-04-05T22:26:58.735Z,17.70
2023-04-05T22:29:26.849Z,17.70
2023-04-05T22:31:55.614Z,17.40
2023-04-05T22:34:23.910Z,16.00
2023-04-05T22:36:52.025Z,15.10
2023-04-05T22:39:21.013Z,15.80
2023-04-05T22:41:49.398Z,17.20
2023-04-05T22:44:21.918Z,17.50
2023-04-05T22:46:50.560Z,18.10
2023-04-05T22:49:18.764Z,17.90
2023-04-05T22:51:47.031Z,17.00
2023-04-05T22:54:15.254Z,15.80
2023-04-05T22:56:44.742Z,17.00
2023-04-05T22:59:12.975Z,17.50
2023-04-05T23:01:41.576Z,14.40
2023-04-05T23:04:10.851Z,17.30
2023-04-05T23:06:40.164Z,14.80
2023-04-05T23:09:09.122Z,16.00
2023-04-05T23:11:37.661Z,15.60
2023-04-05T23:14:06.764Z,16.50
2023-04-05T23:16:35.704Z,16.80
2023-04-05T23:19:04.402Z,15.70
2023-04-05T23:21:32.892Z,19.60
2023-04-05T23:24:02.691Z,22.70
2023-04-05T23:26:31.005Z,18.90
2023-04-05T23:29:00.524Z,18.10
2023-04-05T23:31:28.964Z,15.70
2023-04-05T23:33:57.958Z,17.40
2023-04-05T23:36:30.895Z,17.00
2023-04-05T23:39:02.250Z,16.90
2023-04-05T23:44:00.130Z,15.20
2023-04-05T23:46:28.355Z,14.50
2023-04-05T23:48:58.237Z,15.20
2023-04-05T23:51:26.822Z,15.30
2023-04-05T23:54:00.691Z,16.20
2023-04-05T23:56:29.419Z,14.60
2023-04-05T23:58:57.540Z,15.10
